createdAt,value
2022-12-19T00:02:09.385Z,-2.70
2022-12-19T00:04:39.778Z,-2.80
2022-12-19T00:07:12.110Z,-2.80
2022-12-19T00:09:42.628Z,-2.90
2022-12-19T00:12:19.069Z,-2.80
2022-12-19T00:14:50.748Z,-3.00
2022-12-19T00:17:22.608Z,-3.10
2022-12-19T00:19:53.059Z,-3.10
2022-12-19T00:22:24.174Z,-3.10
2022-12-19T00:24:54.973Z,-3.10
2022-12-19T00:27:26.776Z,-3.10
2022-12-19T00:29:58.629Z,-3.10
2022-12-19T00:32:32.266Z,-3.10
2022-12-19T00:35:02.956Z,-3.10
2022-12-19T00:37:33.570Z,-3.10
2022-12-19T00:40:04.988Z,-3.10
2022-12-19T00:42:35.322Z,-3.10
2022-12-19T00:45:09.954Z,-3.20
2022-12-19T00:47:42.228Z,-3.30
2022-12-19T00:50:15.922Z,-3.30
2022-12-19T00:52:46.171Z,-3.40
2022-12-19T00:55:19.284Z,-3.50
2022-12-19T00:57:53.500Z,-3.60
2022-12-19T01:00:26.317Z,-3.80
2022-12-19T01:02:59.367Z,-4.10
2022-12-19T01:05:29.470Z,-4.30
2022-12-19T01:08:00.701Z,-4.60
2022-12-19T01:10:31.019Z,-4.80
2022-12-19T01:13:00.100Z,-5.00
2022-12-19T01:15:30.377Z,-5.10
2022-12-19T01:18:02.438Z,-5.20
2022-12-19T01:20:32.531Z,-5.40
2022-12-19T01:23:03.192Z,-5.40
2022-12-19T01:25:36.647Z,-5.20
2022-12-19T01:28:09.606Z,-5.20
2022-12-19T01:30:43.293Z,-5.10
2022-12-19T01:33:18.139Z,-5.00
2022-12-19T01:35:49.616Z,-5.10
2022-12-19T01:38:22.685Z,-5.10
2022-12-19T01:40:54.849Z,-5.10
2022-12-19T01:43:25.683Z,-5.20
2022-12-19T01:45:59.044Z,-5.30
2022-12-19T01:48:36.279Z,-5.50
2022-12-19T01:51:12.405Z,-5.70
2022-12-19T01:53:49.451Z,-5.80
2022-12-19T01:56:22.070Z,-6.00
2022-12-19T01:58:57.409Z,-6.10
2022-12-19T02:01:41.518Z,-6.20
2022-12-19T02:04:23.759Z,-6.20
2022-12-19T02:06:55.435Z,-6.10
2022-12-19T02:09:28.546Z,-6.00
2022-12-19T02:12:01.260Z,-6.10
2022-12-19T02:14:31.721Z,-6.20
2022-12-19T02:17:10.332Z,-6.30
2022-12-19T02:20:12.694Z,-6.30
2022-12-19T02:22:57.623Z,-6.40
2022-12-19T02:25:51.281Z,-6.50
2022-12-19T02:28:49.013Z,-6.50
2022-12-19T02:31:26.160Z,-6.60
2022-12-19T02:34:02.573Z,-6.70
2022-12-19T02:36:41.904Z,-6.80
2022-12-19T02:39:18.375Z,-7.00
2022-12-19T02:41:54.119Z,-7.10
2022-12-19T02:44:30.490Z,-7.20
2022-12-19T02:47:05.204Z,-7.30
2022-12-19T02:49:37.617Z,-7.50
2022-12-19T02:52:15.318Z,-7.60
2022-12-19T02:54:45.615Z,-7.70
2022-12-19T02:57:39.406Z,-7.80
2022-12-19T03:00:12.537Z,-7.80
2022-12-19T03:02:59.837Z,-7.90
2022-12-19T03:05:39.004Z,-7.90
2022-12-19T03:08:15.900Z,-7.90
2022-12-19T03:10:49.488Z,-8.00
2022-12-19T03:13:24.062Z,-8.00
2022-12-19T03:15:55.196Z,-8.00
2022-12-19T03:18:27.882Z,-8.00
2022-12-19T03:21:07.353Z,-8.10
2022-12-19T03:23:38.096Z,-8.10
2022-12-19T03:26:13.134Z,-8.10
2022-12-19T03:28:48.311Z,-8.10
2022-12-19T03:31:21.476Z,-8.10
2022-12-19T03:33:57.863Z,-8.10
2022-12-19T03:36:32.930Z,-8.10
2022-12-19T03:39:06.755Z,-8.20
2022-12-19T03:41:53.693Z,-8.20
2022-12-19T03:44:27.502Z,-8.30
2022-12-19T03:47:03.011Z,-8.30
2022-12-19T03:49:35.122Z,-8.20
2022-12-19T03:52:13.614Z,-8.10
2022-12-19T03:54:49.475Z,-8.00
2022-12-19T03:57:26.296Z,-8.00
2022-12-19T04:00:02.481Z,-8.10
2022-12-19T04:02:36.105Z,-8.10
2022-12-19T04:05:11.528Z,-8.20
2022-12-19T04:07:42.690Z,-8.20
2022-12-19T04:10:16.863Z,-8.30
2022-12-19T04:12:52.488Z,-8.50
2022-12-19T04:15:32.905Z,-8.70
2022-12-19T04:18:06.541Z,-9.00
2022-12-19T04:20:42.469Z,-9.20
2022-12-19T04:23:19.435Z,-9.40
2022-12-19T04:25:52.927Z,-9.50
2022-12-19T04:28:28.501Z,-9.30
2022-12-19T04:30:59.246Z,-9.40
2022-12-19T04:33:29.374Z,-9.40
2022-12-19T04:36:02.034Z,-9.60
2022-12-19T04:38:32.880Z,-9.70
2022-12-19T04:41:03.198Z,-9.80
2022-12-19T04:43:33.511Z,-9.80
2022-12-19T04:46:04.116Z,-9.90
2022-12-19T04:48:34.241Z,-9.90
2022-12-19T04:51:06.428Z,-9.70
2022-12-19T04:53:36.532Z,-9.60
2022-12-19T04:56:08.690Z,-9.40
2022-12-19T04:58:38.763Z,-9.20
2022-12-19T05:01:10.377Z,-9.00
2022-12-19T05:03:41.134Z,-8.90
2022-12-19T05:06:14.833Z,-8.80
2022-12-19T05:08:45.834Z,-8.70
2022-12-19T05:11:19.932Z,-8.70
2022-12-19T05:13:52.252Z,-9.00
2022-12-19T05:16:22.638Z,-9.20
2022-12-19T05:18:52.917Z,-9.40
2022-12-19T05:21:25.152Z,-9.60
2022-12-19T05:23:55.225Z,-9.70
2022-12-19T05:26:25.473Z,-9.60
2022-12-19T05:28:55.508Z,-9.90
2022-12-19T05:31:25.680Z,-9.90
2022-12-19T05:33:55.968Z,-9.50
2022-12-19T05:36:32.285Z,-9.30
2022-12-19T05:39:02.890Z,-9.00
2022-12-19T05:41:33.191Z,-8.70
2022-12-19T05:44:03.511Z,-8.50
2022-12-19T05:46:33.676Z,-8.30
2022-12-19T05:49:03.942Z,-8.20
2022-12-19T05:51:36.889Z,-8.20
2022-12-19T05:54:07.271Z,-8.10
2022-12-19T05:56:37.372Z,-8.10
2022-12-19T05:59:07.384Z,-8.00
2022-12-19T06:01:37.551Z,-8.00
2022-12-19T06:04:08.411Z,-7.90
2022-12-19T06:06:40.068Z,-7.80
2022-12-19T06:09:10.261Z,-7.70
2022-12-19T06:11:40.379Z,-7.60
2022-12-19T06:14:10.512Z,-7.70
2022-12-19T06:16:40.794Z,-7.60
2022-12-19T06:19:11.336Z,-7.60
2022-12-19T06:21:48.170Z,-7.70
2022-12-19T06:24:19.056Z,-7.70
2022-12-19T06:26:49.161Z,-7.80
2022-12-19T06:29:19.737Z,-7.80
2022-12-19T06:31:49.923Z,-7.90
2022-12-19T06:34:39.870Z,-8.00
2022-12-19T06:37:12.434Z,-8.10
2022-12-19T06:39:43.303Z,-8.20
2022-12-19T06:42:24.357Z,-8.20
2022-12-19T06:44:56.211Z,-8.30
2022-12-19T06:47:27.333Z,-8.30
2022-12-19T06:49:57.709Z,-8.30
2022-12-19T06:52:29.375Z,-8.30
2022-12-19T06:54:59.723Z,-8.20
2022-12-19T06:57:29.849Z,-8.10
2022-12-19T07:00:00.904Z,-7.90
2022-12-19T07:02:33.411Z,-7.80
2022-12-19T07:05:07.386Z,-7.70
2022-12-19T07:07:39.393Z,-7.60
2022-12-19T07:10:10.976Z,-7.60
2022-12-19T07:12:41.146Z,-7.40
2022-12-19T07:15:12.809Z,-7.30
2022-12-19T07:17:43.277Z,-7.20
2022-12-19T07:20:14.843Z,-7.00
2022-12-19T07:22:47.351Z,-6.90
2022-12-19T07:25:18.570Z,-6.70
2022-12-19T07:27:50.127Z,-6.80
2022-12-19T07:30:20.580Z,-6.70
2022-12-19T07:32:50.667Z,-6.60
2022-12-19T07:35:20.771Z,-6.60
2022-12-19T07:37:53.066Z,-6.50
2022-12-19T07:40:23.353Z,-6.40
2022-12-19T07:42:53.369Z,-6.40
2022-12-19T07:45:23.614Z,-6.40
2022-12-19T07:47:53.775Z,-6.30
2022-12-19T07:50:24.070Z,-6.30
2022-12-19T07:52:55.876Z,-6.20
2022-12-19T07:55:26.299Z,-6.20
2022-12-19T07:57:56.548Z,-6.20
2022-12-19T08:00:27.017Z,-6.20
2022-12-19T08:02:57.408Z,-6.20
2022-12-19T08:05:27.974Z,-6.20
2022-12-19T08:07:59.735Z,-6.10
2022-12-19T08:10:30.157Z,-6.00
2022-12-19T08:13:00.240Z,-6.10
2022-12-19T08:15:30.389Z,-5.90
2022-12-19T08:18:00.578Z,-5.80
2022-12-19T08:20:30.671Z,-5.80
2022-12-19T08:23:02.618Z,-5.80
2022-12-19T08:25:32.651Z,-5.80
2022-12-19T08:28:02.753Z,-5.80
2022-12-19T08:30:33.062Z,-5.80
2022-12-19T08:33:03.163Z,-5.80
2022-12-19T08:35:33.761Z,-5.80
2022-12-19T08:38:06.002Z,-5.80
2022-12-19T08:40:36.147Z,-5.70
2022-12-19T08:43:06.264Z,-5.70
2022-12-19T08:45:36.332Z,-5.70
2022-12-19T08:48:06.696Z,-5.60
2022-12-19T08:50:36.799Z,-5.50
2022-12-19T08:53:08.729Z,-5.50
2022-12-19T08:55:38.974Z,-5.50
2022-12-19T08:58:09.085Z,-5.40
2022-12-19T09:00:39.674Z,-5.40
2022-12-19T09:03:09.871Z,-5.40
2022-12-19T09:06:03.700Z,-5.40
2022-12-19T09:08:34.745Z,-5.50
2022-12-19T09:11:07.254Z,-5.50
2022-12-19T09:13:39.096Z,-5.50
2022-12-19T09:16:11.031Z,-5.50
2022-12-19T09:18:46.617Z,-5.50
2022-12-19T09:21:18.577Z,-5.30
2022-12-19T09:23:53.556Z,-5.40
2022-12-19T09:26:25.259Z,-5.30
2022-12-19T09:28:57.491Z,-5.30
2022-12-19T09:31:28.485Z,-5.30
2022-12-19T09:33:58.597Z,-5.30
2022-12-19T09:36:28.905Z,-5.20
2022-12-19T09:39:01.806Z,-5.10
2022-12-19T09:42:04.211Z,-5.10
2022-12-19T09:44:55.078Z,-5.00
2022-12-19T09:47:27.533Z,-5.00
2022-12-19T09:49:57.681Z,-5.00
2022-12-19T09:52:33.129Z,-4.90
2022-12-19T09:55:11.331Z,-4.80
2022-12-19T09:57:52.655Z,-4.80
2022-12-19T10:00:25.064Z,-4.80
2022-12-19T10:03:01.210Z,-4.70
2022-12-19T10:07:05.934Z,-4.70
2022-12-19T10:08:33.124Z,-4.70
2022-12-19T10:12:38.828Z,-4.80
2022-12-19T10:14:17.128Z,-4.80
2022-12-19T10:17:23.057Z,-4.80
2022-12-19T10:20:00.037Z,-4.90
2022-12-19T10:22:38.843Z,-4.90
2022-12-19T10:25:20.930Z,-4.90
2022-12-19T10:28:00.892Z,-4.90
2022-12-19T10:30:33.570Z,-4.90
2022-12-19T10:33:19.845Z,-5.00
2022-12-19T10:35:59.743Z,-5.00
2022-12-19T10:38:40.239Z,-5.00
2022-12-19T10:41:24.340Z,-5.00
2022-12-19T10:44:03.400Z,-5.10
2022-12-19T10:46:40.608Z,-5.10
2022-12-19T10:49:17.440Z,-5.10
2022-12-19T10:52:01.015Z,-5.20
2022-12-19T10:54:42.391Z,-5.10
2022-12-19T10:57:26.155Z,-5.20
2022-12-19T11:00:03.517Z,-5.20
2022-12-19T11:02:38.016Z,-5.30
2022-12-19T11:05:22.277Z,-5.30
2022-12-19T11:08:04.306Z,-5.30
2022-12-19T11:12:08.320Z,-5.30
2022-12-19T11:18:41.567Z,-5.40
2022-12-19T11:24:45.020Z,-5.40
2022-12-19T11:29:36.944Z,-5.40
2022-12-19T11:29:40.456Z,-5.40
2022-12-19T11:30:06.370Z,-5.40
2022-12-19T11:30:37.869Z,-5.40
2022-12-19T11:34:16.283Z,-5.50
2022-12-19T11:36:52.013Z,-5.50
2022-12-19T11:39:28.438Z,-5.50
2022-12-19T11:42:05.897Z,-5.50
2022-12-19T11:44:41.905Z,-5.60
2022-12-19T11:47:22.190Z,-5.60
2022-12-19T11:50:01.161Z,-5.60
2022-12-19T11:55:44.744Z,-5.70
2022-12-19T11:58:15.445Z,-5.80
2022-12-19T12:00:53.066Z,-5.70
2022-12-19T12:03:42.047Z,-5.80
2022-12-19T12:06:31.719Z,-5.80
2022-12-19T12:11:57.136Z,-5.90
2022-12-19T12:17:21.268Z,-5.90
2022-12-19T12:27:43.808Z,-5.90
2022-12-19T12:28:19.553Z,-5.90
2022-12-19T12:31:05.880Z,-6.00
2022-12-19T12:31:45.829Z,-6.00
2022-12-19T12:31:57.752Z,-6.10
2022-12-19T12:32:03.523Z,-6.00
2022-12-19T12:35:40.501Z,-6.20
2022-12-19T12:38:13.815Z,-6.40
2022-12-19T12:39:29.734Z,-6.40
2022-12-19T12:42:13.729Z,-6.60
2022-12-19T12:44:46.125Z,-6.60
2022-12-19T12:47:21.003Z,-6.70
2022-12-19T12:49:56.040Z,-6.90
2022-12-19T12:52:34.585Z,-7.00
2022-12-19T12:55:14.574Z,-7.10
2022-12-19T12:57:44.869Z,-7.30
2022-12-19T13:00:27.485Z,-7.50
2022-12-19T13:03:07.981Z,-7.70
2022-12-19T13:05:55.662Z,-7.60
2022-12-19T13:08:48.142Z,-7.40
2022-12-19T13:11:57.224Z,-7.30
2022-12-19T13:14:49.078Z,-7.10
2022-12-19T13:17:27.297Z,-6.90
2022-12-19T13:19:59.587Z,-6.60
2022-12-19T13:22:45.161Z,-6.40
2022-12-19T13:25:53.777Z,-6.20
2022-12-19T13:28:44.379Z,-6.00
2022-12-19T13:31:23.662Z,-6.00
2022-12-19T13:34:21.370Z,-5.90
2022-12-19T13:39:48.149Z,-6.00
2022-12-19T13:40:12.215Z,-5.90
2022-12-19T13:43:11.451Z,-5.90
2022-12-19T13:45:50.313Z,-5.80
2022-12-19T13:48:30.622Z,-5.60
2022-12-19T13:51:05.715Z,-5.50
2022-12-19T13:53:36.363Z,-5.30
2022-12-19T13:56:07.736Z,-5.10
2022-12-19T13:58:46.286Z,-4.90
2022-12-19T14:01:26.286Z,-4.70
2022-12-19T14:03:57.792Z,-4.40
2022-12-19T14:06:43.833Z,-4.20
2022-12-19T14:11:28.003Z,-4.00
2022-12-19T14:13:52.979Z,-3.80
2022-12-19T14:15:33.029Z,-3.70
2022-12-19T14:18:42.198Z,-3.60
2022-12-19T14:22:05.841Z,-3.70
2022-12-19T14:24:14.821Z,-3.60
2022-12-19T14:28:21.859Z,-3.50
2022-12-19T14:30:26.778Z,-3.50
2022-12-19T14:33:45.139Z,-3.40
2022-12-19T14:36:07.383Z,-3.10
2022-12-19T14:39:23.551Z,-2.80
2022-12-19T14:41:40.467Z,-2.60
2022-12-19T14:52:08.478Z,-2.50
2022-12-19T14:53:33.929Z,-2.30
2022-12-19T14:54:13.172Z,-2.20
2022-12-19T14:54:23.273Z,-2.20
2022-12-19T14:56:03.897Z,-2.20
2022-12-19T14:58:55.811Z,-2.20
2022-12-19T15:01:27.869Z,-2.00
2022-12-19T15:04:51.738Z,-1.80
2022-12-19T15:07:08.493Z,-1.80
2022-12-19T15:11:09.504Z,-1.90
2022-12-19T15:14:49.362Z,-2.00
2022-12-19T15:16:05.673Z,-2.20
2022-12-19T15:18:45.249Z,-2.40
2022-12-19T15:21:16.716Z,-2.70
2022-12-19T15:23:47.549Z,-2.80
2022-12-19T15:26:21.014Z,-2.90
2022-12-19T15:28:52.695Z,-3.00
2022-12-19T15:31:36.836Z,-3.00
2022-12-19T15:34:37.946Z,-2.90
2022-12-19T15:37:10.442Z,-2.60
2022-12-19T15:39:40.903Z,-2.30
2022-12-19T15:42:21.000Z,-1.90
2022-12-19T15:44:52.061Z,-1.60
2022-12-19T15:47:27.890Z,-1.70
2022-12-19T15:49:58.981Z,-1.40
2022-12-19T15:52:29.255Z,-1.10
2022-12-19T15:54:59.508Z,-0.60
2022-12-19T15:57:35.029Z,-0.10
2022-12-19T16:00:09.673Z,0.30
2022-12-19T16:03:21.116Z,0.70
2022-12-19T16:05:31.698Z,0.90
2022-12-19T16:08:01.752Z,1.10
2022-12-19T16:10:32.261Z,1.50
2022-12-19T16:13:03.937Z,1.30
2022-12-19T16:15:35.654Z,1.50
2022-12-19T16:18:06.519Z,1.70
2022-12-19T16:20:38.573Z,2.00
2022-12-19T16:23:08.873Z,2.00
2022-12-19T16:25:44.568Z,1.90
2022-12-19T16:28:22.058Z,2.20
2022-12-19T16:30:52.505Z,2.30
2022-12-19T16:33:23.781Z,2.40
2022-12-19T16:36:03.995Z,2.30
2022-12-19T16:38:35.499Z,2.30
2022-12-19T16:41:05.808Z,2.40
2022-12-19T16:43:40.589Z,2.70
2022-12-19T16:46:15.136Z,3.00
2022-12-19T16:48:45.276Z,2.90
2022-12-19T16:51:21.725Z,3.10
2022-12-19T16:53:53.208Z,3.40
2022-12-19T16:56:33.191Z,4.00
2022-12-19T16:59:08.913Z,4.40
2022-12-19T17:01:39.682Z,4.60
2022-12-19T17:04:09.864Z,4.60
2022-12-19T17:06:39.997Z,4.20
2022-12-19T17:09:10.902Z,3.60
2022-12-19T17:11:49.249Z,3.40
2022-12-19T17:14:24.833Z,3.20
2022-12-19T17:16:57.936Z,3.00
2022-12-19T17:21:29.297Z,2.70
2022-12-19T17:23:59.734Z,2.90
2022-12-19T17:26:29.822Z,2.90
2022-12-19T17:28:59.871Z,2.80
2022-12-19T17:31:31.238Z,2.60
2022-12-19T17:34:01.810Z,2.50
2022-12-19T17:36:37.934Z,2.20
2022-12-19T17:39:22.463Z,2.10
2022-12-19T17:41:53.347Z,2.20
2022-12-19T17:44:23.586Z,2.20
2022-12-19T17:46:54.605Z,2.10
2022-12-19T17:49:31.516Z,2.10
2022-12-19T17:52:03.550Z,2.10
2022-12-19T17:54:33.923Z,2.10
2022-12-19T17:57:04.133Z,2.10
2022-12-19T17:59:34.289Z,2.20
2022-12-19T18:02:04.616Z,2.20
2022-12-19T18:04:35.306Z,2.20
2022-12-19T18:07:13.883Z,2.20
2022-12-19T18:09:43.912Z,2.20
2022-12-19T18:12:13.987Z,2.30
2022-12-19T18:14:44.140Z,2.30
2022-12-19T18:17:15.979Z,2.30
2022-12-19T18:19:46.875Z,2.30
2022-12-19T18:22:18.505Z,2.30
2022-12-19T18:24:48.575Z,2.30
2022-12-19T18:27:18.591Z,2.40
2022-12-19T18:29:48.772Z,2.40
2022-12-19T18:32:21.648Z,2.50
2022-12-19T18:34:51.857Z,2.40
2022-12-19T18:37:23.517Z,2.30
2022-12-19T18:39:56.270Z,2.30
2022-12-19T18:42:26.309Z,2.40
2022-12-19T18:44:56.450Z,2.50
2022-12-19T18:47:27.935Z,2.40
2022-12-19T18:49:58.542Z,2.30
2022-12-19T18:52:30.524Z,2.20
2022-12-19T18:55:00.790Z,2.10
2022-12-19T18:57:30.802Z,2.00
2022-12-19T19:00:00.904Z,2.00
2022-12-19T19:02:31.972Z,1.90
2022-12-19T19:05:02.234Z,1.80
2022-12-19T19:07:34.019Z,1.80
2022-12-19T19:10:04.280Z,1.70
2022-12-19T19:12:34.994Z,1.60
2022-12-19T19:15:06.390Z,1.50
2022-12-19T19:17:36.718Z,1.30
2022-12-19T19:20:07.938Z,1.30
2022-12-19T19:22:39.980Z,1.40
2022-12-19T19:25:11.260Z,1.40
2022-12-19T19:27:42.333Z,1.40
2022-12-19T19:30:14.623Z,1.40
2022-12-19T19:32:49.452Z,1.40
2022-12-19T19:35:22.590Z,1.40
2022-12-19T19:37:56.771Z,1.40
2022-12-19T19:40:26.899Z,1.40
2022-12-19T19:42:56.908Z,1.40
2022-12-19T19:45:28.458Z,1.30
2022-12-19T19:47:58.690Z,1.30
2022-12-19T19:50:28.793Z,1.20
2022-12-19T19:53:00.865Z,1.10
2022-12-19T19:55:31.417Z,1.10
2022-12-19T19:58:01.552Z,1.00
2022-12-19T20:00:31.894Z,0.90
2022-12-19T20:03:06.343Z,0.80
2022-12-19T20:05:38.709Z,0.80
2022-12-19T20:08:10.396Z,0.80
2022-12-19T20:10:40.536Z,0.70
2022-12-19T20:13:11.728Z,0.60
2022-12-19T20:15:47.723Z,0.50
2022-12-19T20:18:19.912Z,0.50
2022-12-19T20:20:51.013Z,0.40
2022-12-19T20:23:22.781Z,0.30
2022-12-19T20:25:52.937Z,0.30
2022-12-19T20:28:23.106Z,0.30
2022-12-19T20:30:54.082Z,0.20
2022-12-19T20:33:24.414Z,0.20
2022-12-19T20:35:58.801Z,0.20
2022-12-19T20:38:31.004Z,0.10
2022-12-19T20:41:01.168Z,0.00
2022-12-19T20:43:31.653Z,0.00
2022-12-19T20:46:05.176Z,-0.10
2022-12-19T20:48:36.232Z,-0.10
2022-12-19T20:51:07.290Z,-0.10
2022-12-19T20:53:40.408Z,-0.20
2022-12-19T20:56:12.943Z,-0.20
2022-12-19T20:58:43.256Z,-0.30
2022-12-19T21:01:15.099Z,-0.30
2022-12-19T21:03:46.647Z,-0.30
2022-12-19T21:06:20.282Z,-0.40
2022-12-19T21:08:51.975Z,-0.40
2022-12-19T21:11:22.068Z,-0.40
2022-12-19T21:13:52.453Z,-0.40
2022-12-19T21:16:23.893Z,-0.50
2022-12-19T21:18:54.173Z,-0.50
2022-12-19T21:21:27.480Z,-0.50
2022-12-19T21:23:59.802Z,-0.50
2022-12-19T21:26:30.329Z,-0.50
2022-12-19T21:29:00.759Z,-0.50
2022-12-19T21:31:32.275Z,-0.50
2022-12-19T21:34:04.457Z,-0.50
2022-12-19T21:36:34.873Z,-0.50
2022-12-19T21:39:07.410Z,-0.50
2022-12-19T21:41:37.735Z,-0.60
2022-12-19T21:44:08.150Z,-0.50
2022-12-19T21:46:38.709Z,-0.60
2022-12-19T21:49:09.538Z,-0.60
2022-12-19T21:51:39.677Z,-0.70
2022-12-19T21:54:12.500Z,-0.60
2022-12-19T21:56:43.078Z,-0.70
2022-12-19T21:59:15.202Z,-0.70
2022-12-19T22:01:46.182Z,-0.70
2022-12-19T22:04:21.449Z,-0.70
2022-12-19T22:06:52.482Z,-0.80
2022-12-19T22:09:25.724Z,-0.80
2022-12-19T22:11:56.068Z,-0.80
2022-12-19T22:14:26.166Z,-0.90
2022-12-19T22:16:56.341Z,-0.90
2022-12-19T22:19:26.627Z,-0.90
2022-12-19T22:21:57.049Z,-0.90
2022-12-19T22:24:28.897Z,-0.90
2022-12-19T22:26:59.343Z,-1.00
2022-12-19T22:29:29.381Z,-0.90
2022-12-19T22:31:59.600Z,-0.90
2022-12-19T22:34:29.831Z,-0.90
2022-12-19T22:36:59.957Z,-0.90
2022-12-19T22:39:31.866Z,-0.90
2022-12-19T22:42:01.893Z,-0.90
2022-12-19T22:44:32.031Z,-1.00
2022-12-19T22:47:02.130Z,-1.00
2022-12-19T22:49:32.257Z,-1.00
2022-12-19T22:52:02.383Z,-1.10
2022-12-19T22:54:34.098Z,-1.20
2022-12-19T22:57:04.150Z,-1.20
2022-12-19T22:59:34.520Z,-1.30
2022-12-19T23:02:04.905Z,-1.30
2022-12-19T23:04:35.682Z,-1.30
2022-12-19T23:07:06.093Z,-1.20
2022-12-19T23:09:37.778Z,-1.30
2022-12-19T23:12:08.186Z,-1.20
2022-12-19T23:15:10.603Z,-1.20
2022-12-19T23:17:40.681Z,-1.20
2022-12-19T23:20:11.898Z,-1.20
2022-12-19T23:22:41.958Z,-1.20
2022-12-19T23:25:13.986Z,-1.20
2022-12-19T23:27:44.654Z,-1.10
2022-12-19T23:30:15.075Z,-1.20
2022-12-19T23:32:50.516Z,-1.20
2022-12-19T23:35:21.208Z,-1.20
2022-12-19T23:37:51.257Z,-1.30
2022-12-19T23:40:23.307Z,-1.30
2022-12-19T23:42:53.407Z,-1.30
2022-12-19T23:45:23.737Z,-1.30
2022-12-19T23:47:55.595Z,-1.20
2022-12-19T23:50:25.855Z,-1.20
2022-12-19T23:52:55.871Z,-1.20
2022-12-19T23:55:27.679Z,-1.10
2022-12-19T23:57:57.742Z,-1.10
